Time;durP1;ratioP1;P1;durP2;ratioP2;P2;SDS_P1;SDS_P2;PMS_P1;PMS_P2;Temp;Humidity;BMP_temperature;BMP_pressure;BME280_temperature;BME280_humidity;BME280_pressure;Samples;Min_cycle;Max_cycle;Signal;HPM_P1;HPM_P2
2024/01/02 00:00:40;;;;;;;0.40;0.40;;;;;;;2.99;78.18;97411.87;109064;1256;72687;-26
2024/01/02 00:03:07;;;;;;;0.80;0.40;;;;;;;3.28;77.16;97403.52;109073;1257;58924;-27
2024/01/02 00:05:36;;;;;;;0.80;0.40;;;;;;;3.43;75.87;97392.59;109123;1257;58711;-27
2024/01/02 00:08:03;;;;;;;0.80;0.40;;;;;;;3.33;75.77;97393.88;109097;1257;73038;-26
2024/01/02 00:10:31;;;;;;;0.30;0.30;;;;;;;3.20;76.51;97398.80;109104;1262;73159;-27
2024/01/02 00:12:58;;;;;;;0.60;0.60;;;;;;;3.14;76.98;97409.06;109095;1258;71678;-26
2024/01/02 00:15:26;;;;;;;0.40;0.40;;;;;;;3.04;77.26;97395.77;109080;1257;60084;-27
2024/01/02 00:17:53;;;;;;;0.40;0.40;;;;;;;3.29;77.16;97409.25;109110;1256;59177;-27
2024/01/02 00:20:21;;;;;;;0.80;0.30;;;;;;;3.52;76.68;97428.77;109054;1258;73045;-27
2024/01/02 00:22:49;;;;;;;0.30;0.30;;;;;;;3.24;77.18;97398.80;109117;1256;73181;-27
2024/01/02 00:25:16;;;;;;;0.30;0.30;;;;;;;3.17;78.37;97423.04;109099;1257;70591;-26
2024/01/02 00:27:44;;;;;;;0.60;0.50;;;;;;;2.86;79.36;97409.28;109074;1256;60889;-26
2024/01/02 00:30:12;;;;;;;0.70;0.40;;;;;;;2.99;79.14;97408.83;109123;1257;58872;-26
2024/01/02 00:32:40;;;;;;;0.40;0.30;;;;;;;3.17;78.64;97420.30;109049;1257;72825;-26
2024/01/02 00:35:12;;;;;;;0.40;0.40;;;;;;;3.13;79.14;97438.74;109099;1256;74397;-27
2024/01/02 00:37:39;;;;;;;0.50;0.40;;;;;;;2.96;79.73;97427.19;109073;1257;71408;-26
2024/01/02 00:40:08;;;;;;;0.40;0.40;;;;;;;2.69;80.67;97418.25;109105;1258;59941;-24
2024/01/02 00:42:35;;;;;;;0.20;0.20;;;;;;;3.02;80.16;97435.67;108936;1257;58852;-25
2024/01/02 00:45:05;;;;;;;0.30;0.30;;;;;;;3.23;78.84;97428.91;109013;1257;73186;-25
2024/01/02 00:47:32;;;;;;;0.40;0.40;;;;;;;2.98;79.49;97422.92;109054;1257;73203;-25
2024/01/02 00:50:00;;;;;;;0.60;0.50;;;;;;;2.98;79.95;97446.06;109051;1257;72711;-24
2024/01/02 00:52:27;;;;;;;0.80;0.70;;;;;;;2.69;81.18;97445.17;109084;1257;59274;-24
2024/01/02 00:54:55;;;;;;;1.10;0.80;;;;;;;2.94;80.87;97446.52;109018;1263;58814;-24
2024/01/02 00:57:23;;;;;;;0.70;0.40;;;;;;;3.21;79.37;97439.76;109021;1257;73026;-24
2024/01/02 00:59:50;;;;;;;0.90;0.50;;;;;;;2.94;79.83;97424.45;109101;1257;72658;-24
2024/01/02 01:02:18;;;;;;;1.70;1.10;;;;;;;2.81;81.03;97440.15;108998;1257;71821;-24
2024/01/02 01:04:48;;;;;;;1.00;0.50;;;;;;;2.67;81.26;97442.20;109048;1260;58760;-24
2024/01/02 01:07:15;;;;;;;0.70;0.70;;;;;;;2.90;81.08;97447.89;109081;1257;60006;-25
2024/01/02 01:09:43;;;;;;;1.20;0.50;;;;;;;3.06;79.88;97445.66;109012;1259;73064;-25
2024/01/02 01:12:10;;;;;;;1.30;0.70;;;;;;;2.94;79.43;97436.46;109076;1257;74314;-24
2024/01/02 01:14:38;;;;;;;0.70;0.60;;;;;;;2.57;80.86;97416.39;109085;1257;71358;-25
2024/01/02 01:17:06;;;;;;;1.10;0.50;;;;;;;2.49;81.92;97447.17;109024;1257;58770;-27
2024/01/02 01:19:33;;;;;;;0.50;0.50;;;;;;;2.54;81.93;97413.21;109083;1257;58891;-27
2024/01/02 01:22:01;;;;;;;1.00;0.70;;;;;;;2.81;80.60;97441.39;109102;1257;71754;-26
2024/01/02 01:24:28;;;;;;;1.10;0.50;;;;;;;2.79;80.18;97426.23;109073;1257;73152;-27
2024/01/02 01:26:56;;;;;;;0.60;0.60;;;;;;;2.47;81.11;97437.67;109064;1257;72681;-28
2024/01/02 01:29:24;;;;;;;1.40;0.60;;;;;;;2.35;82.27;97431.17;109091;1257;60845;-25
2024/01/02 01:31:51;;;;;;;1.00;0.70;;;;;;;2.64;81.01;97430.29;109113;1257;60168;-24
2024/01/02 01:34:19;;;;;;;1.00;0.50;;;;;;;2.76;80.42;97438.80;109091;1258;73048;-25
2024/01/02 01:36:46;;;;;;;0.40;0.40;;;;;;;2.55;80.92;97444.82;109103;1257;73030;-24
2024/01/02 01:39:14;;;;;;;3.70;0.60;;;;;;;2.46;81.99;97452.34;109033;1257;72637;-24
2024/01/02 01:41:41;;;;;;;0.80;0.50;;;;;;;2.40;82.05;97416.92;109121;1257;59685;-25
2024/01/02 01:44:09;;;;;;;0.60;0.60;;;;;;;2.51;81.78;97433.29;109003;1257;58749;-24
2024/01/02 01:46:37;;;;;;;0.90;0.60;;;;;;;2.48;82.19;97445.29;109067;1257;73171;-25
2024/01/02 01:49:06;;;;;;;0.70;0.50;;;;;;;2.22;83.38;97465.52;108962;1257;74362;-25
2024/01/02 01:51:40;;;;;;;0.70;0.60;;;;;;;2.11;84.42;97470.40;108986;1257;72720;-25
2024/01/02 01:54:07;;;;;;;0.90;0.50;;;;;;;2.36;83.55;97465.71;108929;1257;59241;-25
2024/01/02 01:56:35;;;;;;;0.80;0.60;;;;;;;2.46;82.81;97451.67;108909;1257;60002;-25
2024/01/02 01:59:04;;;;;;;1.30;0.60;;;;;;;2.21;83.34;97454.34;109018;1257;73092;-25
2024/01/02 02:01:32;;;;;;;1.10;0.60;;;;;;;1.90;84.96;97460.80;108961;1257;75450;-25
2024/01/02 02:04:00;;;;;;;1.10;0.70;;;;;;;1.88;85.37;97473.41;108900;1257;71628;-25
2024/01/02 02:06:28;;;;;;;0.80;0.70;;;;;;;2.25;84.22;97488.76;108966;1257;58913;-26
2024/01/02 02:08:55;;;;;;;1.00;0.50;;;;;;;2.10;84.12;97475.30;109070;1260;58916;-25
2024/01/02 02:11:23;;;;;;;1.00;0.50;;;;;;;1.92;84.96;97484.65;109035;1257;73090;-25
2024/01/02 02:13:50;;;;;;;1.20;0.70;;;;;;;1.80;85.82;97485.48;108978;1257;73193;-25
2024/01/02 02:16:18;;;;;;;0.40;0.40;;;;;;;2.16;84.79;97503.83;109010;1257;72790;-26
2024/01/02 02:18:45;;;;;;;0.50;0.50;;;;;;;2.33;83.50;97495.91;108982;1257;60073;-25
2024/01/02 02:21:13;;;;;;;0.40;0.40;;;;;;;2.11;83.70;97489.98;108996;1257;60112;-25
2024/01/02 02:23:40;;;;;;;1.10;0.50;;;;;;;1.83;85.02;97479.42;109033;1257;71746;-25
2024/01/02 02:26:08;;;;;;;0.70;0.50;;;;;;;1.85;85.32;97514.55;109045;1257;73699;-25
2024/01/02 02:28:36;;;;;;;1.80;0.40;;;;;;;2.14;83.68;97507.23;109010;1257;72964;-25
2024/01/02 02:31:03;;;;;;;1.20;0.60;;;;;;;2.08;83.53;97508.34;109045;1257;58966;-26
2024/01/02 02:33:31;;;;;;;1.10;0.60;;;;;;;1.96;83.88;97515.17;109056;1257;58801;-26
2024/01/02 02:36:01;;;;;;;0.60;0.60;;;;;;;1.73;84.93;97518.95;109058;1257;73965;-25
2024/01/02 02:38:29;;;;;;;3.00;0.50;;;;;;;1.95;84.33;97509.36;108963;1257;73353;-25
2024/01/02 02:40:56;;;;;;;0.70;0.70;;;;;;;2.13;83.29;97515.79;109000;1257;70242;-25
2024/01/02 02:43:24;;;;;;;0.40;0.40;;;;;;;1.96;83.44;97500.05;109020;1258;58828;-26
2024/01/02 02:45:52;;;;;;;1.10;0.50;;;;;;;1.77;84.20;97511.51;109080;1260;60032;-25
2024/01/02 02:48:19;;;;;;;0.50;0.50;;;;;;;1.53;85.61;97527.03;108935;1259;73882;-25
2024/01/02 02:50:47;;;;;;;0.50;0.40;;;;;;;1.77;85.05;97523.81;109023;1259;74446;-25
2024/01/02 02:53:14;;;;;;;0.60;0.60;;;;;;;1.95;83.82;97531.97;108950;1258;71448;-25
2024/01/02 02:55:42;;;;;;;0.90;0.60;;;;;;;1.88;83.69;97521.52;108913;1258;60050;-25
2024/01/02 02:58:09;;;;;;;0.40;0.40;;;;;;;1.68;84.62;97540.85;109052;1260;59992;-25
2024/01/02 03:00:37;;;;;;;0.40;0.40;;;;;;;1.64;85.05;97546.98;108997;1259;71343;-25
2024/01/02 03:03:04;;;;;;;0.50;0.50;;;;;;;1.95;83.66;97540.89;108956;1259;72741;-25
2024/01/02 03:05:32;;;;;;;1.10;0.50;;;;;;;1.94;83.31;97547.80;109051;1259;70585;-26
2024/01/02 03:08:00;;;;;;;0.50;0.50;;;;;;;1.73;83.98;97542.63;108941;1259;59275;-26
2024/01/02 03:10:27;;;;;;;0.90;0.60;;;;;;;1.51;85.26;97556.17;109007;1258;60054;-26
2024/01/02 03:12:55;;;;;;;0.50;0.50;;;;;;;1.50;85.44;97561.43;109071;1259;73939;-26
2024/01/02 03:15:22;;;;;;;0.40;0.40;;;;;;;1.84;83.87;97567.33;108960;1258;74397;-26
2024/01/02 03:17:50;;;;;;;1.10;0.70;;;;;;;1.81;83.36;97568.03;109087;1258;71441;-26
2024/01/02 03:20:17;;;;;;;0.30;0.30;;;;;;;1.67;84.02;97565.95;108989;1258;58940;-26
2024/01/02 03:22:45;;;;;;;0.60;0.50;;;;;;;1.39;85.19;97572.56;109016;1259;58770;-26
2024/01/02 03:25:12;;;;;;;0.40;0.40;;;;;;;1.49;85.22;97565.91;109059;1258;73873;-25
2024/01/02 03:27:40;;;;;;;0.40;0.40;;;;;;;1.72;83.61;97563.55;108997;1259;73177;-26
2024/01/02 03:30:08;;;;;;;0.50;0.30;;;;;;;1.83;83.30;97586.38;108980;1259;72713;-26
2024/01/02 03:32:35;;;;;;;0.70;0.60;;;;;;;1.71;83.54;97578.15;108889;1261;59323;-26
2024/01/02 03:35:03;;;;;;;0.40;0.30;;;;;;;1.35;84.85;97573.05;109010;1259;60030;-26
2024/01/02 03:37:31;;;;;;;0.50;0.40;;;;;;;1.53;84.84;97588.08;109015;1259;73979;-27
2024/01/02 03:39:58;;;;;;;1.30;0.50;;;;;;;1.72;83.21;97567.52;109061;1258;74371;-26
2024/01/02 03:42:26;;;;;;;0.40;0.40;;;;;;;1.62;82.84;97581.84;108981;1259;72765;-26
2024/01/02 03:44:54;;;;;;;0.40;0.40;;;;;;;1.52;83.70;97594.09;108932;1259;58774;-25
2024/01/02 03:47:21;;;;;;;0.30;0.30;;;;;;;1.33;84.55;97596.25;108993;1259;58738;-26
2024/01/02 03:49:49;;;;;;;0.40;0.40;;;;;;;1.62;83.34;97594.98;109013;1260;71627;-26
2024/01/02 03:52:17;;;;;;;0.50;0.50;;;;;;;1.80;82.50;97608.16;108965;1260;73198;-26
2024/01/02 03:54:44;;;;;;;0.70;0.50;;;;;;;1.63;82.71;97611.36;109021;1259;72631;-26
2024/01/02 03:57:12;;;;;;;0.50;0.50;;;;;;;1.46;83.68;97613.84;108973;1259;59312;-25
2024/01/02 03:59:39;;;;;;;0.40;0.40;;;;;;;1.24;84.40;97613.59;109061;1259;59035;-25
2024/01/02 04:02:07;;;;;;;0.50;0.50;;;;;;;1.64;83.29;97623.56;108985;1259;73847;-25
2024/01/02 04:04:37;;;;;;;0.60;0.60;;;;;;;1.91;81.41;97621.94;108954;1259;73047;-26
2024/01/02 04:07:05;;;;;;;0.60;0.50;;;;;;;1.60;82.63;97630.89;108924;1259;72838;-25
2024/01/02 04:09:32;;;;;;;1.50;0.60;;;;;;;1.30;83.13;97625.31;108889;1260;58758;-26
2024/01/02 04:12:00;;;;;;;0.50;0.50;;;;;;;1.10;84.72;97621.01;109054;1259;58699;-26
2024/01/02 04:14:27;;;;;;;0.60;0.50;;;;;;;1.48;83.44;97626.55;109270;1256;73822;-26
2024/01/02 04:16:55;;;;;;;0.40;0.40;;;;;;;1.69;82.34;97632.65;109313;1256;72454;-25
2024/01/02 04:19:22;;;;;;;0.70;0.60;;;;;;;1.84;81.91;97641.95;109105;1255;71482;-26
2024/01/02 04:21:50;;;;;;;0.80;0.50;;;;;;;1.43;82.86;97637.66;109182;1255;58857;-26
2024/01/02 04:24:17;;;;;;;0.40;0.40;;;;;;;1.22;83.78;97638.70;109196;1256;60044;-25
2024/01/02 04:26:45;;;;;;;0.60;0.50;;;;;;;1.56;82.89;97643.61;109194;1255;73826;-26
2024/01/02 04:29:12;;;;;;;0.50;0.50;;;;;;;1.72;81.99;97652.88;109161;1256;74264;-27
2024/01/02 04:31:40;;;;;;;0.50;0.50;;;;;;;1.70;81.66;97651.77;109103;1255;70428;-27
2024/01/02 04:34:07;;;;;;;0.90;0.60;;;;;;;1.43;82.58;97655.29;109096;1256;58798;-27
2024/01/02 04:36:35;;;;;;;0.60;0.60;;;;;;;1.28;83.22;97655.05;109211;1256;58809;-27
2024/01/02 04:39:03;;;;;;;1.60;0.50;;;;;;;1.32;83.63;97644.89;109122;1257;73825;-27
2024/01/02 04:41:30;;;;;;;0.40;0.40;;;;;;;1.66;81.86;97647.41;109318;1256;73051;-27
2024/01/02 04:43:58;;;;;;;0.60;0.60;;;;;;;1.75;80.90;97653.50;109075;1256;71513;-28
2024/01/02 04:46:27;;;;;;;0.50;0.50;;;;;;;1.54;81.90;97657.82;109077;1257;58837;-28
2024/01/02 04:48:55;;;;;;;0.80;0.50;;;;;;;1.39;82.68;97662.52;109205;1256;60110;-28
2024/01/02 04:51:23;;;;;;;0.40;0.40;;;;;;;1.28;83.80;97672.99;109102;1256;73881;-28
2024/01/02 04:53:50;;;;;;;0.40;0.40;;;;;;;1.49;83.07;97671.27;109086;1259;73102;-28
2024/01/02 04:56:18;;;;;;;0.60;0.60;;;;;;;1.81;81.32;97663.03;109244;1256;72681;-28
2024/01/02 04:58:45;;;;;;;1.10;0.60;;;;;;;1.56;80.88;97660.20;109083;1257;60128;-29
2024/01/02 05:01:13;;;;;;;0.60;0.60;;;;;;;1.36;82.10;97660.19;109151;1256;60030;-28
2024/01/02 05:03:41;;;;;;;0.90;0.60;;;;;;;1.21;83.14;97681.32;109105;1256;73855;-27
2024/01/02 05:06:08;;;;;;;0.40;0.40;;;;;;;1.22;83.20;97675.10;109100;1256;73200;-27
2024/01/02 05:08:36;;;;;;;0.40;0.40;;;;;;;1.78;81.04;97679.28;109118;1256;72727;-27
2024/01/02 05:11:04;;;;;;;0.50;0.50;;;;;;;1.79;80.44;97690.52;109105;1256;60252;-27
2024/01/02 05:13:31;;;;;;;0.80;0.60;;;;;;;1.77;80.36;97693.74;109204;1256;60075;-28
2024/01/02 05:15:59;;;;;;;0.70;0.60;;;;;;;1.51;81.11;97690.33;109177;1256;72583;-27
2024/01/02 05:18:27;;;;;;;0.70;0.60;;;;;;;1.31;81.84;97693.16;109141;1256;73075;-27
2024/01/02 05:20:54;;;;;;;0.70;0.70;;;;;;;1.38;81.97;97701.25;109079;1258;72684;-27
2024/01/02 05:23:22;;;;;;;1.00;0.70;;;;;;;1.72;80.16;97693.38;109097;1256;60280;-27
2024/01/02 05:25:49;;;;;;;0.40;0.40;;;;;;;1.74;80.25;97704.88;109158;1256;59126;-27
2024/01/02 05:28:17;;;;;;;0.50;0.50;;;;;;;1.59;80.12;97699.33;109117;1256;73652;-27
2024/01/02 05:30:44;;;;;;;0.90;0.70;;;;;;;1.47;80.91;97707.33;109174;1256;74290;-27
2024/01/02 05:33:12;;;;;;;1.00;0.60;;;;;;;1.37;81.42;97711.95;109075;1256;72656;-27
2024/01/02 05:35:40;;;;;;;0.40;0.40;;;;;;;1.65;80.43;97713.85;109148;1256;59276;-26
2024/01/02 05:38:07;;;;;;;0.60;0.60;;;;;;;1.85;79.32;97720.59;109152;1256;59104;-27
2024/01/02 05:40:36;;;;;;;1.00;0.70;;;;;;;1.88;79.25;97725.02;109105;1256;71783;-27
2024/01/02 05:43:05;;;;;;;1.10;0.70;;;;;;;1.59;79.89;97717.69;109104;1257;74345;-27
2024/01/02 05:45:37;;;;;;;1.40;0.80;;;;;;;1.39;80.67;97723.77;109095;1257;72688;-27
2024/01/02 05:48:07;;;;;;;0.70;0.60;;;;;;;1.43;81.04;97733.77;108948;1257;59991;-26
2024/01/02 05:50:37;;;;;;;0.70;0.60;;;;;;;1.72;79.43;97724.02;109074;1257;59697;-27
2024/01/02 05:53:11;;;;;;;0.60;0.60;;;;;;;1.61;79.81;97730.91;108984;1257;73837;-27
2024/01/02 05:55:41;;;;;;;0.60;0.50;;;;;;;1.64;79.64;97729.69;108984;1257;73594;-27
2024/01/02 05:58:10;;;;;;;0.90;0.70;;;;;;;1.39;80.41;97730.40;108969;1257;71523;-27
2024/01/02 06:00:40;;;;;;;1.20;0.80;;;;;;;1.23;81.12;97741.88;108931;1257;58829;-27
2024/01/02 06:03:11;;;;;;;1.10;0.60;;;;;;;1.40;81.27;97754.14;109007;1257;58764;-26
2024/01/02 06:05:41;;;;;;;0.70;0.70;;;;;;;1.62;80.02;97763.52;109028;1257;73866;-27
2024/01/02 06:08:12;;;;;;;0.80;0.60;;;;;;;1.83;79.35;97767.07;109057;1257;74505;-27
2024/01/02 06:10:41;;;;;;;1.00;0.50;;;;;;;1.55;79.74;97769.61;108973;1257;73819;-27
2024/01/02 06:13:13;;;;;;;1.60;1.00;;;;;;;1.53;80.27;97776.71;108941;1257;58736;-27
2024/01/02 06:15:42;;;;;;;0.80;0.70;;;;;;;1.04;82.03;97778.27;109037;1256;60021;-27
2024/01/02 06:18:13;;;;;;;0.90;0.70;;;;;;;1.47;81.26;97787.04;108974;1257;73871;-27
2024/01/02 06:20:44;;;;;;;1.10;0.60;;;;;;;1.93;79.18;97796.07;108914;1257;73272;-27
2024/01/02 06:23:14;;;;;;;0.70;0.70;;;;;;;1.73;79.32;97789.98;109020;1257;71539;-27
2024/01/02 06:25:43;;;;;;;1.20;0.70;;;;;;;1.68;79.68;97796.83;108933;1257;59325;-27
2024/01/02 06:28:13;;;;;;;1.20;0.90;;;;;;;1.39;80.38;97800.52;108951;1257;58891;-27
2024/01/02 06:30:43;;;;;;;0.60;0.50;;;;;;;1.18;81.73;97805.95;109009;1257;73858;-27
2024/01/02 06:33:13;;;;;;;0.90;0.70;;;;;;;1.67;80.59;97811.23;108993;1257;73067;-27
2024/01/02 06:35:44;;;;;;;0.70;0.70;;;;;;;1.83;79.09;97814.36;109004;1257;72698;-27
2024/01/02 06:38:14;;;;;;;0.50;0.50;;;;;;;1.90;78.53;97817.14;108966;1257;60104;-27
2024/01/02 06:40:44;;;;;;;1.10;1.00;;;;;;;1.86;78.48;97807.61;109087;1257;60152;-26
2024/01/02 06:50:50;;;;;;;0.60;0.60;;;;;;;1.96;78.86;97823.23;102681;1292;599955;-28
2024/01/02 06:53:18;;;;;;;0.80;0.60;;;;;;;1.92;78.40;97828.97;104859;1270;61264;-31
2024/01/02 06:55:45;;;;;;;1.10;0.90;;;;;;;1.71;79.19;97829.98;105192;1263;61091;-28
2024/01/02 06:58:13;;;;;;;1.90;0.80;;;;;;;1.46;80.52;97835.84;105167;1263;72176;-28
2024/01/02 07:00:40;;;;;;;1.40;0.70;;;;;;;1.32;81.30;97834.18;105154;1267;73234;-28
2024/01/02 07:03:09;;;;;;;0.40;0.40;;;;;;;1.47;80.97;97840.75;105071;1263;70364;-28
2024/01/02 07:05:37;;;;;;;1.00;0.60;;;;;;;1.81;79.58;97842.90;105154;1264;180958;-28
2024/01/02 07:08:05;;;;;;;0.70;0.70;;;;;;;1.84;79.25;97846.60;105214;1266;61250;-28
2024/01/02 07:10:33;;;;;;;0.80;0.50;;;;;;;1.79;79.70;97852.05;105275;1265;72184;-28
2024/01/02 07:15:11;;;;;;;0.90;0.60;;;;;;;1.15;82.01;97847.67;103117;1286;600828;-28
2024/01/02 07:17:40;;;;;;;0.50;0.50;;;;;;;1.73;80.61;97852.99;104894;1263;61123;-28
2024/01/02 07:20:09;;;;;;;1.00;0.80;;;;;;;1.69;80.19;97854.58;104907;1264;61071;-28
2024/01/02 07:22:37;;;;;;;0.60;0.60;;;;;;;1.44;81.22;97849.52;104880;1263;72229;-28
2024/01/02 07:25:05;;;;;;;1.00;0.60;;;;;;;1.58;81.57;97863.48;104853;1270;73162;-28
2024/01/02 07:35:07;;;;;;;0.50;0.50;;;;;;;2.01;80.37;97885.91;103050;1292;600192;-28
2024/01/02 07:45:11;;;;;;;0.30;0.30;;;;;;;1.49;83.25;97891.95;102691;1295;600143;-28
2024/01/02 07:47:39;;;;;;;0.70;0.50;;;;;;;2.03;80.57;97892.77;104796;1271;61021;-29
2024/01/02 07:50:07;;;;;;;1.10;0.50;;;;;;;1.93;80.60;97893.46;104798;1273;61194;-28
2024/01/02 08:00:13;;;;;;;0.40;0.40;;;;;;;1.34;84.05;97908.58;102776;1292;600139;-29
2024/01/02 08:02:41;;;;;;;0.40;0.40;;;;;;;1.57;82.71;97906.13;104774;1267;61122;-29
2024/01/02 08:05:08;;;;;;;0.40;0.40;;;;;;;1.71;81.73;97910.11;105055;1267;61084;-29
2024/01/02 08:07:36;;;;;;;0.50;0.40;;;;;;;1.41;82.76;97913.64;105055;1265;71345;-28
2024/01/02 08:10:06;;;;;;;0.40;0.40;;;;;;;1.17;84.35;97910.14;104818;1267;73361;-28
2024/01/02 08:12:34;;;;;;;0.30;0.30;;;;;;;1.09;84.62;97914.56;104847;1267;71556;-28
2024/01/02 08:15:02;;;;;;;0.50;0.50;;;;;;;1.49;83.70;97916.40;105046;1264;151318;-28
2024/01/02 08:17:29;;;;;;;0.90;0.40;;;;;;;1.76;82.39;97917.62;105156;1269;61211;-28
2024/01/02 08:19:57;;;;;;;0.70;0.60;;;;;;;1.64;82.58;97924.20;105144;1269;72297;-28
2024/01/02 08:22:26;;;;;;;0.50;0.50;;;;;;;1.81;82.33;97926.08;104969;1263;74337;-27
2024/01/02 08:24:53;;;;;;;0.40;0.40;;;;;;;1.44;83.26;97925.92;105111;1264;72636;-28
2024/01/02 08:27:25;;;;;;;0.80;0.50;;;;;;;1.41;84.07;97925.60;105098;1264;61058;-28
2024/01/02 08:36:53;;;;;;;0.40;0.40;;;;;;;1.98;80.63;97930.29;102766;1290;599885;-26
2024/01/02 08:39:21;;;;;;;0.40;0.40;;;;;;;1.50;82.31;97932.23;105035;1267;61199;-26
2024/01/02 08:41:49;;;;;;;13.80;0.80;;;;;;;1.33;83.72;97933.27;104846;1265;61142;-29
2024/01/02 08:44:16;;;;;;;1.20;0.60;;;;;;;1.23;84.30;97937.30;104819;1267;72231;-29
2024/01/02 08:46:44;;;;;;;0.50;0.50;;;;;;;1.87;82.50;97941.23;104833;1272;73504;-29
2024/01/02 08:49:13;;;;;;;0.70;0.50;;;;;;;2.03;81.13;97944.84;104829;1267;71430;-29
2024/01/02 08:51:41;;;;;;;0.60;0.60;;;;;;;1.80;81.80;97951.29;105098;1266;147794;-29
2024/01/02 09:01:50;;;;;;;1.00;0.60;;;;;;;1.57;83.49;97948.92;102688;1294;600094;-26
2024/01/02 09:04:18;;;;;;;0.80;0.80;;;;;;;1.98;81.20;97951.69;104814;1266;61718;-27
2024/01/02 09:14:21;;;;;;;1.40;0.80;;;;;;;1.18;82.98;97950.45;102783;1288;600085;-27
2024/01/02 09:16:49;;;;;;;0.90;0.80;;;;;;;1.51;82.52;97950.30;105670;1256;61058;-26
2024/01/02 09:19:16;;;;;;;1.90;1.20;;;;;;;1.90;80.61;97950.48;105676;1253;61045;-27
2024/01/02 09:21:44;;;;;;;1.20;1.10;;;;;;;1.41;81.42;97949.71;105691;1253;70681;-28
2024/01/02 09:24:16;;;;;;;1.80;0.80;;;;;;;1.53;81.47;97951.03;105721;1258;73169;-29
2024/01/02 09:26:44;;;;;;;0.80;0.70;;;;;;;1.20;82.88;97952.70;105502;1256;71466;-29
2024/01/02 09:29:12;;;;;;;0.70;0.70;;;;;;;1.09;83.25;97950.63;105710;1253;185108;-29
2024/01/02 09:31:40;;;;;;;1.20;0.70;;;;;;;1.16;83.20;97950.70;105789;1253;61039;-30
2024/01/02 09:34:11;;;;;;;0.50;0.50;;;;;;;1.64;81.29;97957.57;105906;1256;72190;-29
2024/01/02 09:36:39;;;;;;;0.60;0.50;;;;;;;1.34;80.76;97949.98;105710;1251;74378;-29
2024/01/02 09:39:06;;;;;;;0.50;0.50;;;;;;;1.46;80.92;97953.52;105885;1256;72612;-29
2024/01/02 09:41:54;;;;;;;0.70;0.70;;;;;;;1.22;82.05;97956.51;105869;1253;61112;-29
2024/01/02 09:44:44;;;;;;;0.80;0.70;;;;;;;0.96;82.65;97958.38;105486;1252;61206;-29
2024/01/02 09:47:24;;;;;;;0.70;0.70;;;;;;;1.27;82.29;97961.35;105784;1259;72923;-29
2024/01/02 09:50:00;;;;;;;1.30;0.70;;;;;;;1.60;80.42;97960.36;105789;1254;74305;-29
2024/01/02 09:53:07;;;;;;;0.80;0.80;;;;;;;1.49;79.63;97955.20;105848;1258;72605;-30
2024/01/02 09:55:50;;;;;;;0.70;0.70;;;;;;;1.30;80.24;97960.84;105788;1253;61128;-29
2024/01/02 09:58:36;;;;;;;1.00;0.70;;;;;;;0.95;81.47;97958.46;105702;1253;61131;-29
2024/01/02 10:01:29;;;;;;;0.70;0.60;;;;;;;0.80;82.02;97952.86;105692;1259;73008;-29
2024/01/02 10:11:53;;;;;;;0.90;0.80;;;;;;;1.50;79.36;97955.98;102735;1292;599017;-26
2024/01/02 10:22:25;;;;;;;0.50;0.50;;;;;;;1.83;78.14;97954.69;102700;1290;599085;-26
2024/01/02 10:25:09;;;;;;;0.60;0.60;;;;;;;1.72;77.78;97952.30;105042;1267;61148;-26
2024/01/02 10:28:02;;;;;;;0.90;0.80;;;;;;;1.35;78.51;97952.14;104844;1267;61163;-28
2024/01/02 10:30:38;;;;;;;1.00;0.80;;;;;;;0.83;79.67;97942.77;104900;1267;72196;-29
2024/01/02 10:33:33;;;;;;;1.00;0.90;;;;;;;0.79;80.39;97953.61;104770;1275;74332;-28
2024/01/02 10:36:03;;;;;;;0.70;0.60;;;;;;;1.14;79.26;97950.67;105518;1254;348281;-29
2024/01/02 10:38:43;;;;;;;0.90;0.80;;;;;;;1.23;78.71;97949.13;105949;1252;61106;-28
2024/01/02 10:41:49;;;;;;;1.40;0.90;;;;;;;1.49;78.22;97955.55;105973;1257;61140;-28
2024/01/02 10:44:42;;;;;;;1.40;1.00;;;;;;;1.36;78.76;97958.08;105884;1262;70941;-28
2024/01/02 10:47:41;;;;;;;1.60;0.90;;;;;;;1.11;78.70;97953.72;105790;1260;76461;-28
2024/01/02 10:50:12;;;;;;;1.80;1.10;;;;;;;0.93;79.35;97952.92;105871;1259;73072;-28
2024/01/02 10:53:06;;;;;;;2.60;1.70;;;;;;;1.26;78.46;97960.70;105602;1255;61099;-28
2024/01/02 10:55:49;;;;;;;1.60;1.30;;;;;;;0.97;78.91;97951.48;105756;1254;61234;-28
2024/01/02 10:58:23;;;;;;;1.90;1.50;;;;;;;1.00;78.35;97953.91;105688;1254;73125;-28
2024/01/02 11:01:12;;;;;;;1.80;1.30;;;;;;;0.76;79.25;97958.39;105704;1261;74631;-28
